Kipling, North Carolina
Current Conditions -  °F | °C
As of 11:55 PM on Friday 24 Oct 2014 (Local Time) from KHRJ Reporting Station
Scattered Clouds Scattered Clouds  
Wind Chill: 50°   Ceiling: Unl
Heat Index: 50°   Visibility: 10mi
Dew Point: 49°   Wind: 0mph
Humidity: 97%   Direction: NA
Pressure: 30"   Gusts: NA
Location:  35.48°N, 78.82°W
Report Text: KHRJ 250355Z AUTO 00000KT 10SM SCT002 10/10 A3000 RMK AO2 T01020097
Loading
Personal Weather Stations






























Interactive Weather Map
Tropical Storm Tracking
New forecast layout! Learn more

10-Day Weather Forecast

Advertisements
Track Severe Weather on mobile